Time;durP1;ratioP1;P1;durP2;ratioP2;P2;SDS_P1;SDS_P2;PMS_P1;PMS_P2;Temp;Humidity;BMP_temperature;BMP_pressure;BME280_temperature;BME280_humidity;BME280_pressure;Samples;Min_cycle;Max_cycle;Signal;HPM_P1;HPM_P2
2023/02/21 02:13:56;;;;;;;71.28;35.47;;;9.90;99.90;;;;;;6125194;23;20013;-71
2023/02/21 02:16:44;;;;;;;65.18;33.83;;;9.90;99.90;;;;;;6118224;23;20109;-71
2023/02/21 02:19:34;;;;;;;73.88;33.40;;;9.90;99.90;;;;;;6098163;23;20064;-71
2023/02/21 02:22:30;;;;;;;71.50;34.17;;;10.00;99.90;;;;;;6122590;23;20002;-71
2023/02/21 02:25:16;;;;;;;65.25;34.17;;;10.00;99.90;;;;;;6125362;23;20009;-71
2023/02/21 02:28:07;;;;;;;62.72;32.75;;;9.90;99.90;;;;;;6108937;23;20053;-71
2023/02/21 02:30:52;;;;;;;68.55;34.13;;;10.00;99.90;;;;;;6123098;23;20405;-71
2023/02/21 02:33:53;;;;;;;68.70;32.58;;;10.00;99.90;;;;;;6125091;23;20421;-71
2023/02/21 02:36:26;;;;;;;64.38;31.83;;;10.00;99.90;;;;;;6119038;23;20010;-71
2023/02/21 02:38:51;;;;;;;71.65;34.88;;;10.00;99.90;;;;;;6123797;23;20005;-71
2023/02/21 02:42:00;;;;;;;72.88;33.47;;;10.00;99.90;;;;;;6124184;23;20006;-71
2023/02/21 02:44:33;;;;;;;76.00;35.97;;;10.00;99.90;;;;;;6124533;23;20052;-71
2023/02/21 02:47:00;;;;;;;;;;;10.00;99.90;;;;;;6123488;23;20021;-71
2023/02/21 02:49:28;;;;;;;64.60;31.65;;;10.00;99.90;;;;;;6125008;23;19905;-71
2023/02/21 02:51:54;;;;;;;68.55;31.80;;;10.00;99.90;;;;;;6124562;23;20037;-71
2023/02/21 02:54:20;;;;;;;75.88;35.67;;;9.90;99.90;;;;;;6124353;23;20002;-71
2023/02/21 02:56:47;;;;;;;73.28;34.70;;;10.00;99.90;;;;;;6123552;23;20001;-71
2023/02/21 02:59:26;;;;;;;77.55;37.00;;;9.90;99.90;;;;;;6122197;23;20002;-71
2023/02/21 03:02:24;;;;;;;71.68;32.92;;;9.90;99.90;;;;;;6125487;23;20008;-71
2023/02/21 03:05:05;;;;;;;74.70;33.03;;;9.90;99.90;;;;;;6122191;23;20010;-71
2023/02/21 03:07:52;;;;;;;72.25;32.28;;;9.90;99.90;;;;;;6125546;23;20371;-71
2023/02/21 03:10:24;;;;;;;73.88;34.25;;;9.90;99.90;;;;;;6123124;23;20009;-71
2023/02/21 03:12:58;;;;;;;87.60;34.73;;;9.80;99.90;;;;;;6125224;23;20002;-71
2023/02/21 03:15:31;;;;;;;88.47;35.47;;;9.90;99.90;;;;;;6122709;23;20009;-71
2023/02/21 03:18:08;;;;;;;87.00;34.92;;;9.80;99.90;;;;;;6125600;23;20421;-71
2023/02/21 03:20:36;;;;;;;85.78;36.20;;;9.90;99.90;;;;;;6121823;23;20111;-71
2023/02/21 03:23:03;;;;;;;93.97;37.08;;;10.00;99.90;;;;;;6125994;23;20002;-71
2023/02/21 03:25:32;;;;;;;83.47;36.00;;;9.90;99.90;;;;;;6124091;23;20473;-71
2023/02/21 03:27:59;;;;;;;98.35;37.72;;;9.90;99.90;;;;;;6126276;23;20006;-71
2023/02/21 03:30:25;;;;;;;97.80;39.40;;;9.90;99.90;;;;;;6123393;23;20006;-71
2023/02/21 03:32:52;;;;;;;86.28;35.78;;;9.90;99.90;;;;;;6125550;23;20331;-72
2023/02/21 03:35:19;;;;;;;95.13;37.15;;;9.90;99.90;;;;;;6124766;23;20002;-71
2023/02/21 03:37:53;;;;;;;82.88;34.13;;;10.00;99.90;;;;;;6097706;23;20413;-70
2023/02/21 03:40:31;;;;;;;112.45;39.17;;;9.90;99.90;;;;;;6121950;23;20010;-71
2023/02/21 03:42:59;;;;;;;78.70;35.70;;;9.90;99.90;;;;;;6123136;23;20519;-71
2023/02/21 03:45:24;;;;;;;88.18;35.00;;;9.90;99.90;;;;;;6123124;23;20002;-71
2023/02/21 03:47:50;;;;;;;82.63;36.38;;;9.80;99.90;;;;;;6123989;23;20025;-71
2023/02/21 03:50:16;;;;;;;117.75;40.00;;;9.90;99.90;;;;;;6124809;23;20437;-71
2023/02/21 03:52:42;;;;;;;90.53;36.45;;;9.90;99.90;;;;;;6121824;23;20330;-71
2023/02/21 03:55:08;;;;;;;108.95;38.38;;;9.80;99.90;;;;;;6124242;23;20006;-71
2023/02/21 03:57:34;;;;;;;105.68;39.00;;;9.80;99.90;;;;;;6124174;23;20038;-71
2023/02/21 03:59:59;;;;;;;99.97;37.65;;;9.80;99.90;;;;;;6098345;23;20005;-71
2023/02/21 04:02:26;;;;;;;82.38;35.60;;;9.70;99.90;;;;;;6098127;23;20434;-71
2023/02/21 04:04:51;;;;;;;97.32;37.65;;;9.80;99.90;;;;;;6124364;23;20056;-70
2023/02/21 04:07:19;;;;;;;93.50;37.92;;;9.80;99.90;;;;;;6124501;23;20002;-71
2023/02/21 04:09:45;;;;;;;104.70;38.35;;;9.90;99.90;;;;;;6124267;23;20022;-71
2023/02/21 04:12:11;;;;;;;91.78;35.78;;;10.00;99.90;;;;;;6123653;23;20081;-71
2023/02/21 04:14:37;;;;;;;93.75;38.03;;;10.00;99.90;;;;;;6123795;23;20037;-71
2023/02/21 04:17:03;;;;;;;110.53;39.50;;;10.00;99.90;;;;;;6123259;23;20461;-71
2023/02/21 04:19:29;;;;;;;83.57;34.55;;;9.80;99.90;;;;;;6123202;23;20002;-71
2023/02/21 04:21:55;;;;;;;114.85;40.92;;;9.80;99.90;;;;;;6123311;23;20005;-71
2023/02/21 04:24:20;;;;;;;104.25;38.67;;;9.80;99.90;;;;;;6123083;23;20431;-71
2023/02/21 04:26:46;;;;;;;119.13;39.08;;;9.80;99.90;;;;;;6123691;23;20002;-71
2023/02/21 04:29:11;;;;;;;87.25;34.80;;;9.80;99.90;;;;;;6120296;23;20012;-71
2023/02/21 04:31:37;;;;;;;95.35;38.25;;;9.80;99.90;;;;;;6123835;23;20022;-71
2023/02/21 04:34:03;;;;;;;119.65;40.95;;;9.90;99.90;;;;;;6124476;23;20009;-71
2023/02/21 04:36:29;;;;;;;95.72;36.15;;;9.90;99.90;;;;;;6125164;23;20073;-71
2023/02/21 04:38:55;;;;;;;89.95;35.78;;;9.90;99.90;;;;;;6123852;23;20307;-71
2023/02/21 04:41:22;;;;;;;118.82;39.92;;;9.80;99.90;;;;;;6125290;23;20030;-71
2023/02/21 04:43:48;;;;;;;93.85;35.00;;;9.90;99.90;;;;;;6124425;23;20327;-71
2023/02/21 04:46:15;;;;;;;101.57;35.75;;;9.90;99.90;;;;;;6126669;23;20014;-71
2023/02/21 04:48:45;;;;;;;88.32;35.05;;;9.90;99.90;;;;;;6125347;23;20006;-71
2023/02/21 04:51:12;;;;;;;85.97;34.10;;;9.80;99.90;;;;;;6127273;23;20342;-71
2023/02/21 04:53:37;;;;;;;76.15;32.38;;;9.90;99.90;;;;;;6125683;23;20010;-71
2023/02/21 04:56:04;;;;;;;105.38;36.13;;;9.90;99.90;;;;;;6124938;23;20006;-70
2023/02/21 04:58:29;;;;;;;95.03;34.63;;;9.90;99.90;;;;;;6124008;23;19998;-71
2023/02/21 05:00:55;;;;;;;78.80;32.00;;;9.80;99.90;;;;;;6125373;23;20064;-71
2023/02/21 05:03:20;;;;;;;96.18;34.63;;;9.90;99.90;;;;;;6100619;23;20009;-71
2023/02/21 05:05:46;;;;;;;86.90;32.03;;;9.80;99.90;;;;;;6125407;23;20002;-71
2023/02/21 05:08:12;;;;;;;97.90;33.85;;;9.90;99.90;;;;;;6125230;23;20080;-71
2023/02/21 05:10:38;;;;;;;85.93;32.65;;;9.80;99.90;;;;;;6126096;23;20020;-71
2023/02/21 05:13:04;;;;;;;86.07;33.50;;;9.80;99.90;;;;;;6124139;23;20008;-71
2023/02/21 05:15:29;;;;;;;84.07;32.88;;;9.80;99.90;;;;;;6126008;23;20009;-71
2023/02/21 05:17:55;;;;;;;103.35;34.58;;;9.90;99.90;;;;;;6125242;23;20006;-71
2023/02/21 05:20:21;;;;;;;92.38;33.50;;;9.90;99.90;;;;;;6123829;23;20322;-71
2023/02/21 05:22:48;;;;;;;115.90;36.60;;;10.00;99.90;;;;;;6125367;23;20394;-70
2023/02/21 05:25:22;;;;;;;95.72;33.95;;;9.90;99.90;;;;;;6098948;23;20419;-70
2023/02/21 05:27:49;;;;;;;89.90;31.77;;;9.90;99.90;;;;;;6125933;23;20001;-71
2023/02/21 05:30:18;;;;;;;73.75;30.10;;;9.90;99.90;;;;;;6123822;23;20065;-71
2023/02/21 05:32:44;;;;;;;105.43;36.60;;;9.90;99.90;;;;;;6124722;23;20006;-71
2023/02/21 05:35:12;;;;;;;105.57;35.65;;;9.90;99.90;;;;;;6126876;23;20064;-71
2023/02/21 05:37:37;;;;;;;79.72;30.52;;;9.80;99.90;;;;;;6123642;23;20438;-71
2023/02/21 05:40:04;;;;;;;88.53;32.53;;;9.80;99.90;;;;;;6125826;23;19998;-71
2023/02/21 05:42:30;;;;;;;88.53;32.78;;;9.80;99.90;;;;;;6126579;23;20456;-71
2023/02/21 05:44:55;;;;;;;86.57;31.45;;;9.80;99.90;;;;;;6125902;23;20374;-71
2023/02/21 05:47:21;;;;;;;76.95;29.15;;;9.80;99.90;;;;;;6126414;23;20013;-71
2023/02/21 05:49:47;;;;;;;79.13;30.88;;;9.80;99.90;;;;;;6124815;23;19997;-71
2023/02/21 05:52:15;;;;;;;66.97;27.95;;;9.80;99.90;;;;;;6125434;23;20057;-71
2023/02/21 05:54:41;;;;;;;83.15;29.98;;;9.80;99.90;;;;;;6127250;23;19998;-71
2023/02/21 05:57:07;;;;;;;79.57;28.88;;;9.70;99.90;;;;;;6124977;23;20060;-71
2023/02/21 05:59:33;;;;;;;68.50;28.10;;;9.80;99.90;;;;;;6124470;23;20071;-71
2023/02/21 06:01:58;;;;;;;66.40;26.17;;;9.80;99.90;;;;;;6100325;23;20002;-71
2023/02/21 06:04:24;;;;;;;77.53;27.40;;;9.80;99.90;;;;;;6126384;23;20013;-71
2023/02/21 06:06:50;;;;;;;90.55;31.42;;;9.70;99.90;;;;;;6098511;23;20006;-71
2023/02/21 06:09:17;;;;;;;73.18;28.85;;;9.70;99.90;;;;;;6099789;23;20085;-70
2023/02/21 06:11:44;;;;;;;68.07;26.50;;;9.70;99.90;;;;;;6126475;23;20037;-71
2023/02/21 06:14:16;;;;;;;77.43;27.83;;;9.80;99.90;;;;;;6125194;23;20002;-71
2023/02/21 06:16:41;;;;;;;87.90;31.85;;;9.70;99.90;;;;;;6125190;23;20422;-72
2023/02/21 06:19:08;;;;;;;67.50;27.08;;;9.80;99.90;;;;;;6124548;23;20002;-71
2023/02/21 06:21:37;;;;;;;61.53;26.02;;;9.70;99.90;;;;;;6124712;23;20076;-71
2023/02/21 06:24:03;;;;;;;68.82;28.70;;;9.70;99.90;;;;;;6125369;23;20010;-71
2023/02/21 06:26:29;;;;;;;92.32;31.55;;;9.80;99.90;;;;;;6125882;23;20076;-71
2023/02/21 06:28:55;;;;;;;74.30;28.90;;;9.80;99.90;;;;;;6122752;23;20006;-71
2023/02/21 06:31:20;;;;;;;89.47;29.40;;;9.80;99.90;;;;;;6125305;23;20430;-71
2023/02/21 06:33:47;;;;;;;82.00;29.92;;;9.80;99.90;;;;;;6126052;23;20021;-71
2023/02/21 06:36:20;;;;;;;68.45;28.70;;;9.80;99.90;;;;;;6123950;23;20010;-71
2023/02/21 06:38:49;;;;;;;68.70;27.77;;;9.80;99.90;;;;;;6123911;23;20006;-71
2023/02/21 06:41:16;;;;;;;72.85;28.67;;;9.80;99.90;;;;;;6126621;23;20407;-71
2023/02/21 06:43:42;;;;;;;77.57;29.10;;;9.90;99.90;;;;;;6124560;23;20122;-71
2023/02/21 06:46:07;;;;;;;71.70;30.08;;;9.80;99.90;;;;;;6123865;23;20045;-71
2023/02/21 06:48:33;;;;;;;92.68;32.08;;;9.90;99.90;;;;;;6125574;23;20002;-71
2023/02/21 06:50:59;;;;;;;83.40;30.65;;;10.00;99.90;;;;;;6125213;23;20021;-71
2023/02/21 06:53:24;;;;;;;70.93;29.65;;;9.90;99.90;;;;;;6124176;23;20002;-71
2023/02/21 06:55:50;;;;;;;92.97;32.47;;;9.80;99.90;;;;;;6125202;23;20002;-71
2023/02/21 06:58:16;;;;;;;68.70;28.25;;;9.80;99.90;;;;;;6124099;23;20398;-72
2023/02/21 07:00:42;;;;;;;86.22;30.42;;;9.90;99.90;;;;;;6124900;23;20030;-72
2023/02/21 07:03:07;;;;;;;73.35;29.52;;;9.90;99.90;;;;;;6126320;23;20006;-72
2023/02/21 07:05:33;;;;;;;71.78;28.13;;;9.80;99.90;;;;;;6124097;23;20001;-72
2023/02/21 07:08:00;;;;;;;78.85;28.25;;;9.70;99.90;;;;;;6125701;23;20430;-72
2023/02/21 07:10:26;;;;;;;73.88;26.63;;;9.70;99.90;;;;;;6123658;23;20020;-72
2023/02/21 07:12:51;;;;;;;84.32;27.98;;;9.70;99.90;;;;;;6124298;23;20033;-71
2023/02/21 07:15:17;;;;;;;57.42;25.75;;;9.60;99.90;;;;;;6124093;23;20006;-71
2023/02/21 07:17:43;;;;;;;71.28;27.13;;;9.60;99.90;;;;;;6125620;23;20016;-71
2023/02/21 07:20:08;;;;;;;59.42;25.50;;;9.60;99.90;;;;;;6122762;23;19998;-71
2023/02/21 07:22:34;;;;;;;76.40;27.83;;;9.70;99.90;;;;;;6124991;23;20153;-71
2023/02/21 07:25:00;;;;;;;76.70;25.85;;;9.80;99.90;;;;;;6124821;23;20428;-71
2023/02/21 07:27:25;;;;;;;56.70;24.33;;;9.80;99.90;;;;;;6122706;23;20102;-71
2023/02/21 07:29:51;;;;;;;56.47;23.30;;;9.70;99.90;;;;;;6123857;23;20430;-71
2023/02/21 07:32:17;;;;;;;68.90;26.42;;;9.70;99.90;;;;;;6123702;23;20419;-71
2023/02/21 07:34:43;;;;;;;60.17;24.60;;;9.70;99.90;;;;;;6124089;23;20034;-71
2023/02/21 07:37:09;;;;;;;55.85;22.73;;;9.70;99.90;;;;;;6122947;23;20434;-71
2023/02/21 07:39:34;;;;;;;60.13;23.83;;;9.70;99.90;;;;;;6122917;23;20060;-71
2023/02/21 07:42:00;;;;;;;51.85;23.15;;;9.70;99.90;;;;;;6124570;23;20437;-71
2023/02/21 07:44:25;;;;;;;56.33;23.63;;;9.60;99.90;;;;;;6097203;23;20010;-71
2023/02/21 07:46:51;;;;;;;48.25;21.83;;;9.60;99.90;;;;;;6122976;23;20010;-71
2023/02/21 07:49:17;;;;;;;46.97;19.58;;;9.70;99.90;;;;;;6123575;23;20106;-71
2023/02/21 07:51:43;;;;;;;54.17;21.75;;;9.70;99.90;;;;;;6125479;23;20324;-71
2023/02/21 07:54:08;;;;;;;49.22;21.02;;;9.60;99.90;;;;;;6122591;23;20478;-71
2023/02/21 07:56:34;;;;;;;46.15;20.58;;;9.70;99.90;;;;;;6124136;23;20006;-71
2023/02/21 07:58:59;;;;;;;49.58;22.38;;;9.60;99.90;;;;;;6120664;23;20492;-72
2023/02/21 08:01:25;;;;;;;58.38;23.55;;;9.70;99.90;;;;;;6124610;23;20025;-72
2023/02/21 08:03:51;;;;;;;51.00;20.50;;;9.70;99.90;;;;;;6123113;23;20002;-71
2023/02/21 08:06:17;;;;;;;52.88;22.00;;;9.80;99.90;;;;;;6124186;23;20025;-71
2023/02/21 08:08:44;;;;;;;49.90;21.67;;;9.80;99.90;;;;;;6098721;23;20053;-72
2023/02/21 08:11:10;;;;;;;42.90;20.45;;;9.80;99.90;;;;;;6124912;23;20386;-72
2023/02/21 08:13:36;;;;;;;43.95;20.15;;;9.80;99.90;;;;;;6096982;23;20034;-71
2023/02/21 08:16:02;;;;;;;43.50;20.75;;;9.80;99.90;;;;;;6095982;23;20107;-71
2023/02/21 08:18:27;;;;;;;41.67;20.38;;;9.80;99.90;;;;;;6124196;23;20038;-72
2023/02/21 08:20:55;;;;;;;41.55;19.42;;;9.80;99.90;;;;;;6123656;23;20014;-72
2023/02/21 08:23:22;;;;;;;43.05;18.83;;;9.90;99.90;;;;;;6124416;23;20053;-71
2023/02/21 08:25:48;;;;;;;41.88;19.65;;;10.00;99.90;;;;;;6123811;23;20076;-71
2023/02/21 08:28:15;;;;;;;41.15;17.60;;;10.00;99.90;;;;;;6123974;23;20442;-72
2023/02/21 08:30:40;;;;;;;38.65;17.75;;;10.00;99.90;;;;;;6120108;23;20009;-72
2023/02/21 08:33:06;;;;;;;37.03;16.50;;;10.00;99.90;;;;;;6124356;23;20028;-71
2023/02/21 08:35:32;;;;;;;35.88;16.80;;;10.00;99.90;;;;;;6124021;23;20006;-73
2023/02/21 08:38:01;;;;;;;36.53;16.67;;;10.00;99.90;;;;;;6098854;23;20009;-72
2023/02/21 08:40:28;;;;;;;36.65;14.90;;;10.00;99.90;;;;;;6112800;23;20009;-72
2023/02/21 08:42:54;;;;;;;35.63;16.17;;;10.00;99.90;;;;;;6099026;23;20010;-72
2023/02/21 08:45:21;;;;;;;34.63;15.85;;;9.90;99.90;;;;;;6118454;23;20016;-72
2023/02/21 08:47:47;;;;;;;32.03;16.08;;;9.90;99.90;;;;;;6120156;23;20022;-72
2023/02/21 08:50:13;;;;;;;30.75;14.57;;;10.00;99.90;;;;;;6120406;23;20024;-72
2023/02/21 08:52:39;;;;;;;29.65;15.07;;;10.00;99.90;;;;;;6120966;23;20014;-72
2023/02/21 08:55:08;;;;;;;33.03;15.43;;;9.90;99.90;;;;;;6119349;23;20012;-72
2023/02/21 08:57:33;;;;;;;27.52;14.77;;;9.90;99.90;;;;;;6119408;23;20044;-71
2023/02/21 08:59:59;;;;;;;30.83;14.68;;;9.90;99.90;;;;;;6121430;23;20423;-71
2023/02/21 09:02:27;;;;;;;27.17;13.15;;;9.90;99.90;;;;;;6120841;23;20002;-72
2023/02/21 09:04:53;;;;;;;24.38;12.90;;;10.00;99.90;;;;;;6093244;23;20010;-71
2023/02/21 09:07:21;;;;;;;24.10;13.00;;;10.00;99.90;;;;;;6121253;23;20002;-71
2023/02/21 09:09:47;;;;;;;24.02;11.93;;;10.00;99.90;;;;;;6121722;23;20025;-72
2023/02/21 09:12:13;;;;;;;23.98;12.98;;;9.90;99.90;;;;;;6119138;23;20048;-70
2023/02/21 09:14:41;;;;;;;22.75;12.20;;;10.00;99.90;;;;;;6119841;23;20010;-71
2023/02/21 09:17:09;;;;;;;26.83;13.15;;;9.90;99.90;;;;;;6122513;23;20363;-71
2023/02/21 09:19:36;;;;;;;21.80;11.35;;;10.00;99.90;;;;;;6119800;23;20519;-71
2023/02/21 09:22:05;;;;;;;21.50;11.52;;;9.90;99.90;;;;;;6092904;23;20484;-71
2023/02/21 09:24:31;;;;;;;19.75;10.52;;;10.00;99.90;;;;;;6117681;23;20037;-70
2023/02/21 09:26:58;;;;;;;19.58;9.93;;;9.90;99.90;;;;;;6120341;23;20081;-71
2023/02/21 09:29:32;;;;;;;18.58;9.95;;;10.00;99.90;;;;;;6119448;23;20002;-71
2023/02/21 09:31:59;;;;;;;18.50;10.55;;;10.10;99.90;;;;;;6122395;23;20009;-71
2023/02/21 09:34:24;;;;;;;18.95;9.80;;;10.00;99.90;;;;;;6120894;23;20105;-71
2023/02/21 09:36:50;;;;;;;17.77;9.63;;;10.00;99.90;;;;;;6122869;23;20069;-72
2023/02/21 09:39:17;;;;;;;16.45;9.32;;;10.00;99.90;;;;;;6122028;23;20094;-71
2023/02/21 09:41:43;;;;;;;15.35;9.05;;;10.00;99.90;;;;;;6096633;23;20097;-71
2023/02/21 09:44:18;;;;;;;16.92;9.18;;;10.10;99.90;;;;;;6122372;23;20036;-71
2023/02/21 09:46:47;;;;;;;17.60;9.98;;;10.10;99.90;;;;;;6121660;23;20020;-71
2023/02/21 09:49:31;;;;;;;17.73;9.65;;;10.00;99.90;;;;;;6123144;23;20006;-71
2023/02/21 09:51:59;;;;;;;17.42;9.60;;;10.00;99.90;;;;;;6120471;23;20100;-72
2023/02/21 09:54:32;;;;;;;16.67;9.48;;;10.10;99.90;;;;;;6123469;23;20060;-72
2023/02/21 09:57:00;;;;;;;16.50;8.85;;;10.20;99.90;;;;;;6122054;23;20013;-72
2023/02/21 09:59:26;;;;;;;15.90;9.38;;;10.20;99.90;;;;;;6123874;23;20414;-71
2023/02/21 10:02:08;;;;;;;18.35;10.38;;;10.20;99.90;;;;;;6123177;23;20001;-71
2023/02/21 10:05:11;;;;;;;17.13;9.07;;;10.20;99.90;;;;;;6122497;23;20017;-71
2023/02/21 10:07:48;;;;;;;17.17;9.20;;;10.20;99.90;;;;;;6121602;23;20002;-72
2023/02/21 10:10:38;;;;;;;18.75;10.32;;;10.20;99.90;;;;;;6123074;23;20090;-71
2023/02/21 10:13:19;;;;;;;13.45;8.27;;;10.10;99.90;;;;;;6122699;23;20045;-72
2023/02/21 10:15:47;;;;;;;30.92;25.38;;;10.30;99.90;;;;;;6122495;23;20014;-72
2023/02/21 10:18:33;;;;;;;14.70;8.88;;;10.30;99.90;;;;;;6124329;23;20248;-71
2023/02/21 10:21:03;;;;;;;15.80;9.43;;;10.20;99.90;;;;;;6122433;23;20014;-71
2023/02/21 10:23:46;;;;;;;17.95;9.70;;;10.20;99.90;;;;;;6121991;23;20006;-71
2023/02/21 10:26:19;;;;;;;17.15;9.45;;;10.20;99.90;;;;;;6120036;23;20029;-71
2023/02/21 10:28:44;;;;;;;16.85;9.05;;;10.30;99.90;;;;;;6123223;23;20545;-71
2023/02/21 10:31:17;;;;;;;16.05;8.82;;;10.20;99.90;;;;;;6121572;23;20049;-71
2023/02/21 10:33:42;;;;;;;15.05;8.73;;;10.10;99.90;;;;;;6118715;23;20435;-71
2023/02/21 10:36:20;;;;;;;15.02;9.07;;;10.10;99.90;;;;;;6121681;23;20029;-71
2023/02/21 10:39:20;;;;;;;14.65;8.68;;;10.20;99.90;;;;;;6121972;23;20013;-71
2023/02/21 10:41:48;;;;;;;16.05;9.18;;;10.20;99.90;;;;;;6103993;23;20013;-71
2023/02/21 10:44:21;;;;;;;18.40;9.48;;;10.30;99.90;;;;;;6122648;23;20037;-71
2023/02/21 10:46:53;;;;;;;21.10;11.27;;;10.30;99.90;;;;;;6095873;23;20116;-71
2023/02/21 10:49:30;;;;;;;20.75;11.32;;;10.30;99.90;;;;;;6120664;23;20077;-70
2023/02/21 10:52:09;;;;;;;19.80;11.27;;;10.30;99.90;;;;;;6122151;23;20017;-70
2023/02/21 10:54:35;;;;;;;15.38;9.48;;;10.40;99.90;;;;;;6122865;23;20005;-71
2023/02/21 10:57:03;;;;;;;21.27;10.93;;;10.40;99.90;;;;;;6122120;23;20423;-71
2023/02/21 10:59:35;;;;;;;19.10;11.98;;;10.30;99.90;;;;;;6121502;23;20077;-70
2023/02/21 11:02:26;;;;;;;19.10;12.07;;;10.30;99.90;;;;;;6121380;23;20001;-71
2023/02/21 11:04:54;;;;;;;20.95;12.00;;;10.30;99.90;;;;;;6120872;23;20080;-71
2023/02/21 11:07:22;;;;;;;21.38;10.70;;;10.30;99.90;;;;;;6122039;23;20029;-71
2023/02/21 11:09:49;;;;;;;18.27;11.25;;;10.30;99.90;;;;;;6122409;23;20010;-71
2023/02/21 11:12:15;;;;;;;17.58;11.18;;;10.40;99.90;;;;;;6122718;23;20041;-71
2023/02/21 11:14:41;;;;;;;16.15;9.88;;;10.40;99.90;;;;;;6121235;23;20001;-71
2023/02/21 11:17:12;;;;;;;14.07;8.65;;;10.40;99.90;;;;;;6122137;23;20013;-74
2023/02/21 11:19:51;;;;;;;15.15;8.63;;;10.50;99.90;;;;;;6122115;23;20002;-71
2023/02/21 11:22:23;;;;;;;15.38;8.98;;;10.50;99.90;;;;;;6123081;23;20057;-70
2023/02/21 11:24:58;;;;;;;23.85;9.57;;;10.40;99.90;;;;;;6121417;23;20010;-71
2023/02/21 11:27:24;;;;;;;15.32;8.48;;;10.50;99.90;;;;;;6121759;23;20016;-71
2023/02/21 11:29:52;;;;;;;19.00;9.65;;;10.50;99.90;;;;;;6122036;23;20037;-71
2023/02/21 11:32:23;;;;;;;14.55;8.68;;;10.40;99.90;;;;;;6118690;23;20006;-71
2023/02/21 11:34:49;;;;;;;16.55;10.20;;;10.40;99.90;;;;;;6122736;23;19998;-71
2023/02/21 11:37:15;;;;;;;18.08;10.43;;;10.50;99.90;;;;;;6121453;23;20084;-71
2023/02/21 11:39:48;;;;;;;19.80;11.80;;;10.50;99.90;;;;;;6097008;23;20002;-71
2023/02/21 11:42:32;;;;;;;19.73;11.65;;;10.30;99.90;;;;;;6121789;23;20002;-71
2023/02/21 11:45:20;;;;;;;20.52;11.23;;;10.40;99.90;;;;;;6120373;23;20028;-71
2023/02/21 11:47:57;;;;;;;17.17;10.68;;;10.40;99.90;;;;;;6121186;23;20525;-71
2023/02/21 11:50:24;;;;;;;16.67;10.75;;;10.50;99.90;;;;;;6120993;23;19998;-71
2023/02/21 11:53:04;;;;;;;21.80;12.60;;;10.50;99.90;;;;;;6121702;23;20084;-71
2023/02/21 11:55:30;;;;;;;22.48;11.93;;;10.60;99.90;;;;;;6095773;23;20002;-71
2023/02/21 11:58:05;;;;;;;23.60;12.38;;;10.60;99.90;;;;;;6093871;23;20097;-71
2023/02/21 12:01:00;;;;;;;24.20;13.20;;;10.60;99.90;;;;;;6122097;23;20375;-71
2023/02/21 12:03:57;;;;;;;26.92;14.48;;;10.60;99.90;;;;;;6122259;23;20006;-71
2023/02/21 12:06:53;;;;;;;25.17;15.25;;;10.50;99.90;;;;;;6092965;23;20012;-72
2023/02/21 12:09:32;;;;;;;27.35;16.55;;;10.60;99.90;;;;;;6095752;23;20006;-71
2023/02/21 12:12:04;;;;;;;24.85;15.15;;;10.60;99.90;;;;;;6120262;23;20437;-71
2023/02/21 12:14:39;;;;;;;;;;;10.60;99.90;;;;;;6123385;23;20494;-71
2023/02/21 12:17:29;;;;;;;30.67;18.10;;;10.60;99.90;;;;;;6121109;23;19915;-71
2023/02/21 12:20:01;;;;;;;33.20;19.10;;;10.50;99.90;;;;;;6122086;23;20006;-71
2023/02/21 12:22:54;;;;;;;33.67;20.10;;;10.40;99.90;;;;;;6120273;23;20017;-70
2023/02/21 12:25:35;;;;;;;34.17;19.98;;;10.10;99.90;;;;;;6122692;23;20072;-70
2023/02/21 12:28:18;;;;;;;36.83;20.42;;;10.20;99.90;;;;;;6118519;23;20005;-70
2023/02/21 12:30:55;;;;;;;36.72;19.95;;;10.30;99.90;;;;;;6094861;23;20022;-69
2023/02/21 12:33:29;;;;;;;39.53;21.20;;;10.30;99.90;;;;;;6121942;23;20415;-71
2023/02/21 12:36:19;;;;;;;39.03;21.27;;;10.40;99.90;;;;;;6121555;23;20395;-70
2023/02/21 12:39:39;;;;;;;38.10;21.92;;;10.40;99.90;;;;;;6122243;23;20029;-71
2023/02/21 12:42:21;;;;;;;39.05;24.25;;;10.30;99.90;;;;;;6122145;23;20010;-70
2023/02/21 12:45:11;;;;;;;38.77;22.93;;;10.30;99.90;;;;;;6120529;23;20081;-71
2023/02/21 12:48:06;;;;;;;41.58;23.92;;;10.40;99.90;;;;;;6121933;23;20348;-70
2023/02/21 12:50:42;;;;;;;43.15;25.38;;;10.40;99.90;;;;;;6094635;23;20010;-71
2023/02/21 12:53:16;;;;;;;38.75;22.40;;;10.40;99.90;;;;;;6119680;23;20061;-70
2023/02/21 12:55:50;;;;;;;39.72;23.23;;;10.40;99.90;;;;;;6121991;23;20013;-70
2023/02/21 12:58:24;;;;;;;35.63;21.08;;;10.40;99.90;;;;;;6119540;23;20013;-70
2023/02/21 13:00:59;;;;;;;36.17;21.27;;;10.40;99.90;;;;;;6122029;23;20002;-71
2023/02/21 13:03:48;;;;;;;24.40;15.23;;;10.40;99.90;;;;;;6119312;23;20080;-69
2023/02/21 13:06:39;;;;;;;24.02;15.20;;;10.60;99.90;;;;;;6123012;23;20021;-70
2023/02/21 13:09:05;;;;;;;28.48;16.02;;;10.60;99.90;;;;;;6122633;23;20385;-70
2023/02/21 13:11:42;;;;;;;28.23;16.90;;;10.50;99.90;;;;;;6122055;23;20017;-70
2023/02/21 13:14:16;;;;;;;28.85;16.50;;;10.60;99.90;;;;;;6123861;23;20765;-70
2023/02/21 13:16:41;;;;;;;31.30;17.88;;;10.60;99.90;;;;;;6122669;23;20093;-70
2023/02/21 13:19:11;;;;;;;31.30;18.67;;;10.70;99.90;;;;;;6123996;23;20061;-70
2023/02/21 13:21:52;;;;;;;30.60;18.38;;;10.70;99.90;;;;;;6121455;23;20399;-70
2023/02/21 13:24:33;;;;;;;31.55;18.70;;;10.60;99.90;;;;;;6123582;23;20002;-70
2023/02/21 13:27:21;;;;;;;31.33;18.80;;;10.60;99.90;;;;;;6096749;23;20017;-70
2023/02/21 13:29:48;;;;;;;31.08;17.65;;;10.60;99.90;;;;;;6123079;23;20547;-70
2023/02/21 13:32:18;;;;;;;28.60;17.33;;;10.60;99.90;;;;;;6122294;23;20018;-70
2023/02/21 13:34:55;;;;;;;34.38;18.17;;;10.70;99.90;;;;;;6121609;23;20041;-69
2023/02/21 13:37:25;;;;;;;29.63;16.27;;;10.70;99.90;;;;;;6122947;23;20006;-70
2023/02/21 13:40:00;;;;;;;24.60;13.35;;;10.60;99.90;;;;;;6095499;23;20029;-69
2023/02/21 13:42:28;;;;;;;29.83;14.40;;;10.70;99.90;;;;;;6118655;23;20010;-69
2023/02/21 13:45:16;;;;;;;32.45;16.08;;;10.50;99.90;;;;;;6119697;23;20009;-70
2023/02/21 13:48:05;;;;;;;29.23;14.35;;;10.50;99.90;;;;;;6120338;23;20018;-70
2023/02/21 13:50:36;;;;;;;30.10;15.13;;;10.50;99.90;;;;;;6118628;23;20010;-70
2023/02/21 13:53:08;;;;;;;27.92;15.75;;;10.50;99.90;;;;;;6122952;23;20006;-70
2023/02/21 13:55:38;;;;;;;28.05;15.88;;;10.60;99.90;;;;;;6121524;23;20006;-70
2023/02/21 13:58:06;;;;;;;30.50;16.35;;;10.60;99.90;;;;;;6123127;23;20435;-70
2023/02/21 14:00:31;;;;;;;29.38;14.82;;;10.60;99.90;;;;;;6123400;23;20007;-70
2023/02/21 14:03:16;;;;;;;34.00;16.23;;;10.60;99.90;;;;;;6121762;23;20343;-70
2023/02/21 14:05:51;;;;;;;33.88;14.73;;;10.50;99.90;;;;;;6096696;23;20006;-69
2023/02/21 14:08:31;;;;;;;31.63;14.68;;;10.40;99.90;;;;;;6096024;23;20434;-68
2023/02/21 14:11:06;;;;;;;28.30;14.68;;;10.40;99.90;;;;;;6121622;23;20086;-69
2023/02/21 14:13:47;;;;;;;27.98;13.95;;;10.30;99.90;;;;;;6120068;23;20002;-69
2023/02/21 14:16:13;;;;;;;25.08;13.25;;;10.40;99.90;;;;;;6122490;23;20120;-69
2023/02/21 14:18:50;;;;;;;28.75;13.77;;;10.40;99.90;;;;;;6121787;23;20443;-69
2023/02/21 14:21:28;;;;;;;26.27;13.60;;;10.50;99.90;;;;;;6120709;23;20159;-69
2023/02/21 14:24:16;;;;;;;27.30;13.65;;;10.50;99.90;;;;;;6120292;23;20446;-68
2023/02/21 14:26:47;;;;;;;28.45;13.98;;;10.50;99.90;;;;;;6123642;23;20005;-69
2023/02/21 14:29:27;;;;;;;29.85;14.00;;;10.40;99.90;;;;;;6098165;23;20008;-69
2023/02/21 14:32:02;;;;;;;28.25;14.50;;;10.40;99.90;;;;;;6122224;23;20025;-70
2023/02/21 14:34:46;;;;;;;26.77;13.02;;;10.40;99.90;;;;;;6123863;23;20009;-70
2023/02/21 14:37:35;;;;;;;31.80;15.30;;;10.40;99.90;;;;;;6123492;23;20034;-69
2023/02/21 14:40:08;;;;;;;27.52;13.73;;;10.50;99.90;;;;;;6122840;23;20047;-69
2023/02/21 14:42:55;;;;;;;34.17;15.45;;;10.40;99.90;;;;;;6122299;23;20081;-69
2023/02/21 14:45:35;;;;;;;31.33;15.52;;;10.40;99.90;;;;;;6123368;23;20034;-69
2023/02/21 14:48:09;;;;;;;29.05;15.55;;;10.10;99.90;;;;;;6123468;23;20442;-69
2023/02/21 14:50:37;;;;;;;31.08;15.07;;;10.30;99.90;;;;;;6123251;23;20018;-69
2023/02/21 14:53:20;;;;;;;29.33;15.63;;;10.40;99.90;;;;;;6095990;23;20089;-69
2023/02/21 14:56:08;;;;;;;33.28;15.75;;;10.40;99.90;;;;;;6096459;23;20013;-69
2023/02/21 14:58:47;;;;;;;31.40;16.30;;;10.40;99.90;;;;;;6123518;23;20327;-69
2023/02/21 15:01:38;;;;;;;32.97;16.67;;;10.40;99.90;;;;;;6096556;23;20009;-69
2023/02/21 15:04:24;;;;;;;37.03;18.05;;;10.40;99.90;;;;;;6122620;23;20009;-69
2023/02/21 15:07:08;;;;;;;33.08;16.00;;;10.40;99.90;;;;;;6123445;23;20002;-73
2023/02/21 15:09:34;;;;;;;34.35;16.98;;;10.30;99.90;;;;;;6096606;23;20509;-69